Time;durP1;ratioP1;P1;durP2;ratioP2;P2;SDS_P1;SDS_P2;PMS_P1;PMS_P2;Temp;Humidity;BMP_temperature;BMP_pressure;BME280_temperature;BME280_humidity;BME280_pressure;Samples;Min_cycle;Max_cycle;Signal;HPM_P1;HPM_P2
2022/07/26 16:39:05;;;;;;;6.93;0.90;;;;;;;;;;5814503;23;20065;-64
2022/07/26 16:41:31;;;;;;;2.33;0.70;;;;;;;;;;4874735;29;20175;-64
2022/07/26 16:43:58;;;;;;;4.07;1.10;;;;;;;;;;4871480;29;20057;-64
2022/07/26 16:46:25;;;;;;;4.80;0.93;;;;;;;;;;4875840;29;20063;-64
2022/07/26 16:48:51;;;;;;;7.30;1.02;;;;;;;;;;4872338;29;20083;-64
2022/07/26 16:51:18;;;;;;;6.10;1.00;;;;;;;;;;4878296;29;20057;-64
2022/07/26 16:53:44;;;;;;;7.20;0.93;;;;;;;;;;4875665;29;20060;-64
2022/07/26 16:56:12;;;;;;;7.30;0.80;;;;;;;;;;4880021;29;20173;-63
2022/07/26 16:58:39;;;;;;;2.75;0.73;;;;;;;;;;4875497;29;20059;-64
2022/07/26 17:01:05;;;;;;;4.13;0.80;;;;;;;;;;4874859;29;20067;-65
2022/07/26 17:03:42;;;;;;;4.00;0.80;;;;;;;;;;4881568;29;20112;-63
2022/07/26 17:06:19;;;;;;;3.25;0.80;;;;;;;;;;4879925;29;20091;-64
2022/07/26 17:08:45;;;;;;;3.78;0.82;;;;;;;;;;4896320;29;20064;-64
2022/07/26 17:11:16;;;;;;;4.72;0.95;;;;;;;;;;4895377;29;20045;-64
2022/07/26 17:13:44;;;;;;;4.00;1.00;;;;;;;;;;4864073;29;20136;-64
2022/07/26 17:16:10;;;;;;;4.45;0.80;;;;;;;;;;4879500;29;20056;-65
2022/07/26 17:18:37;;;;;;;2.22;0.75;;;;;;;;;;4879323;29;20067;-64
2022/07/26 17:21:06;;;;;;;2.95;0.82;;;;;;;;;;4879242;29;20056;-63
2022/07/26 17:23:35;;;;;;;4.63;0.70;;;;;;;;;;4895012;29;20052;-65
2022/07/26 17:26:01;;;;;;;2.17;0.70;;;;;;;;;;4879561;29;20124;-64
2022/07/26 17:28:29;;;;;;;3.47;0.60;;;;;;;;;;4894237;29;20063;-64
2022/07/26 17:30:56;;;;;;;2.55;0.57;;;;;;;;;;4895139;29;20063;-64
2022/07/26 17:33:23;;;;;;;2.75;0.65;;;;;;;;;;4877711;29;20049;-64
2022/07/26 17:35:50;;;;;;;2.85;0.88;;;;;;;;;;4878539;29;20074;-64
2022/07/26 17:38:16;;;;;;;2.72;0.80;;;;;;;;;;4879126;29;20143;-64
2022/07/26 17:40:43;;;;;;;2.60;0.73;;;;;;;;;;4877123;29;20066;-64
2022/07/26 17:43:09;;;;;;;5.05;0.90;;;;;;;;;;4873102;29;20065;-63
2022/07/26 17:45:37;;;;;;;2.15;0.70;;;;;;;;;;4857377;29;20056;-64
2022/07/26 17:48:04;;;;;;;4.50;0.80;;;;;;;;;;4857455;29;20061;-64
2022/07/26 17:50:31;;;;;;;4.68;0.90;;;;;;;;;;4872946;29;20053;-63
2022/07/26 17:52:59;;;;;;;5.00;0.80;;;;;;;;;;4857292;29;20110;-64
2022/07/26 17:55:25;;;;;;;3.53;0.82;;;;;;;;;;4857224;29;20049;-63
2022/07/26 17:57:52;;;;;;;6.82;0.90;;;;;;;;;;4856769;29;20065;-64
2022/07/26 18:00:19;;;;;;;2.72;0.60;;;;;;;;;;4856308;29;20057;-63
2022/07/26 18:02:47;;;;;;;6.35;0.90;;;;;;;;;;4856373;29;20061;-63
2022/07/26 18:05:14;;;;;;;2.50;0.70;;;;;;;;;;4856625;29;20061;-63
2022/07/26 18:07:40;;;;;;;1.80;0.57;;;;;;;;;;4856847;29;20127;-63
2022/07/26 18:10:08;;;;;;;4.00;1.00;;;;;;;;;;4855324;29;20057;-63
2022/07/26 18:12:37;;;;;;;2.55;0.70;;;;;;;;;;4856629;29;20061;-64
2022/07/26 18:15:05;;;;;;;1.57;0.63;;;;;;;;;;4872261;29;20148;-64
2022/07/26 18:17:31;;;;;;;3.47;0.90;;;;;;;;;;4856626;29;20321;-68
2022/07/26 18:19:59;;;;;;;3.25;1.10;;;;;;;;;;4856520;29;20064;-63
2022/07/26 18:22:26;;;;;;;3.60;1.02;;;;;;;;;;4856688;29;20064;-64
2022/07/26 18:24:52;;;;;;;3.45;0.88;;;;;;;;;;4856106;29;20057;-63
2022/07/26 18:27:19;;;;;;;4.97;1.20;;;;;;;;;;4856198;29;20085;-65
2022/07/26 18:29:45;;;;;;;3.78;1.08;;;;;;;;;;4856178;29;20053;-65
2022/07/26 18:32:13;;;;;;;6.72;1.13;;;;;;;;;;4856600;29;20062;-65
2022/07/26 18:34:40;;;;;;;6.70;1.25;;;;;;;;;;4871533;29;20065;-63
2022/07/26 18:37:08;;;;;;;4.55;0.80;;;;;;;;;;4856174;29;20054;-63
2022/07/26 18:39:35;;;;;;;7.43;2.00;;;;;;;;;;4855889;29;20061;-64
2022/07/26 18:42:01;;;;;;;2.95;0.90;;;;;;;;;;4856327;29;20106;-66
2022/07/26 18:44:28;;;;;;;4.60;0.90;;;;;;;;;;4855928;29;20056;-64
2022/07/26 18:46:55;;;;;;;1.23;0.60;;;;;;;;;;4856097;29;20081;-63
2022/07/26 18:49:21;;;;;;;2.63;1.00;;;;;;;;;;4855180;29;20062;-65
2022/07/26 18:51:48;;;;;;;4.40;1.00;;;;;;;;;;4871650;29;20061;-63
2022/07/26 18:54:16;;;;;;;4.40;1.15;;;;;;;;;;4854530;29;20090;-63
2022/07/26 18:56:43;;;;;;;2.47;0.88;;;;;;;;;;4855915;29;20064;-66
2022/07/26 18:59:10;;;;;;;5.53;1.08;;;;;;;;;;4855620;29;20069;-63
2022/07/26 19:01:39;;;;;;;2.63;0.88;;;;;;;;;;4865546;24;20057;-63
2022/07/26 19:04:08;;;;;;;3.50;0.90;;;;;;;;;;4870196;29;20048;-64
2022/07/26 19:06:36;;;;;;;3.75;0.98;;;;;;;;;;4866710;29;20077;-64
2022/07/26 19:09:03;;;;;;;12.70;1.48;;;;;;;;;;4870550;29;20084;-64
2022/07/26 19:11:32;;;;;;;3.22;0.90;;;;;;;;;;4872620;29;20053;-64
2022/07/26 19:13:58;;;;;;;2.72;0.90;;;;;;;;;;4864862;29;20060;-65
2022/07/26 19:16:26;;;;;;;2.95;0.98;;;;;;;;;;4873202;29;20061;-64
2022/07/26 19:18:53;;;;;;;5.60;1.20;;;;;;;;;;4864517;29;20086;-63
2022/07/26 19:21:19;;;;;;;2.72;1.10;;;;;;;;;;4872298;29;20060;-63
2022/07/26 19:23:46;;;;;;;5.57;1.20;;;;;;;;;;4859269;29;20072;-64
2022/07/26 19:26:12;;;;;;;1.88;0.70;;;;;;;;;;4873902;29;20057;-67
2022/07/26 19:28:40;;;;;;;5.03;0.70;;;;;;;;;;4875165;29;20048;-65
2022/07/26 19:31:07;;;;;;;3.45;1.00;;;;;;;;;;4867887;29;20057;-65
2022/07/26 19:33:34;;;;;;;1.90;0.70;;;;;;;;;;4873926;29;20144;-64
2022/07/26 19:36:00;;;;;;;5.65;0.85;;;;;;;;;;4866183;29;20113;-64
2022/07/26 19:38:27;;;;;;;3.17;0.57;;;;;;;;;;4872381;29;20053;-65
2022/07/26 19:40:54;;;;;;;4.60;1.00;;;;;;;;;;4865686;29;20053;-65
2022/07/26 19:43:21;;;;;;;2.45;0.90;;;;;;;;;;4872028;29;20061;-64
2022/07/26 19:45:49;;;;;;;1.92;0.70;;;;;;;;;;4869100;29;20053;-64
2022/07/26 19:48:16;;;;;;;2.70;1.23;;;;;;;;;;4871205;29;20072;-63
2022/07/26 19:50:42;;;;;;;8.88;3.53;;;;;;;;;;4873658;29;20080;-63
2022/07/26 19:53:09;;;;;;;10.50;3.30;;;;;;;;;;4871505;29;20081;-62
2022/07/26 19:55:37;;;;;;;9.57;2.95;;;;;;;;;;4876641;29;20068;-64
2022/07/26 19:58:03;;;;;;;10.07;2.85;;;;;;;;;;4865283;29;20049;-64
2022/07/26 20:00:30;;;;;;;7.18;2.33;;;;;;;;;;4872682;29;20053;-64
2022/07/26 20:02:58;;;;;;;10.48;3.33;;;;;;;;;;4865839;29;20069;-63
2022/07/26 20:05:24;;;;;;;8.40;2.63;;;;;;;;;;4871501;29;20197;-64
2022/07/26 20:07:51;;;;;;;8.25;2.72;;;;;;;;;;4871081;29;20053;-63
2022/07/26 20:10:18;;;;;;;9.30;2.80;;;;;;;;;;4864837;29;20067;-63
2022/07/26 20:12:45;;;;;;;9.85;2.80;;;;;;;;;;4871751;29;20148;-64
2022/07/26 20:15:13;;;;;;;9.13;3.13;;;;;;;;;;4865223;29;20064;-64
2022/07/26 20:17:40;;;;;;;10.35;2.85;;;;;;;;;;4871158;29;20138;-62
2022/07/26 20:20:09;;;;;;;5.40;1.70;;;;;;;;;;4868549;29;20068;-62
2022/07/26 20:22:37;;;;;;;5.78;1.88;;;;;;;;;;4870593;29;20087;-63
2022/07/26 20:25:03;;;;;;;4.90;2.20;;;;;;;;;;4869662;29;20052;-63
2022/07/26 20:27:30;;;;;;;6.63;2.28;;;;;;;;;;4875050;29;20056;-63
2022/07/26 20:29:57;;;;;;;8.43;2.30;;;;;;;;;;4872858;29;20049;-63
2022/07/26 20:32:23;;;;;;;6.35;1.98;;;;;;;;;;4874839;29;20105;-62
2022/07/26 20:34:50;;;;;;;3.28;1.05;;;;;;;;;;4873136;29;20049;-62
2022/07/26 20:37:18;;;;;;;8.27;2.65;;;;;;;;;;4874443;29;20117;-63
2022/07/26 20:39:44;;;;;;;5.32;2.20;;;;;;;;;;4874253;29;20170;-63
2022/07/26 20:42:11;;;;;;;5.78;2.30;;;;;;;;;;4870945;29;20041;-63
2022/07/26 20:44:38;;;;;;;7.25;2.05;;;;;;;;;;4869339;29;20117;-63
2022/07/26 20:47:05;;;;;;;5.40;1.70;;;;;;;;;;4870430;29;20135;-63
2022/07/26 20:49:31;;;;;;;7.18;1.73;;;;;;;;;;4875434;29;20060;-63
2022/07/26 20:51:58;;;;;;;3.65;1.63;;;;;;;;;;4871506;29;20057;-63
2022/07/26 20:54:26;;;;;;;3.30;1.27;;;;;;;;;;4875175;29;20056;-63
2022/07/26 20:56:53;;;;;;;4.28;1.60;;;;;;;;;;4870095;29;20077;-63
2022/07/26 20:59:19;;;;;;;6.68;1.55;;;;;;;;;;4875252;29;20144;-63
2022/07/26 21:01:46;;;;;;;4.22;1.73;;;;;;;;;;4886195;29;20117;-63
2022/07/26 21:04:13;;;;;;;6.82;1.35;;;;;;;;;;4874976;29;20057;-63
2022/07/26 21:06:40;;;;;;;5.22;1.80;;;;;;;;;;4871156;29;20061;-63
2022/07/26 21:09:06;;;;;;;4.50;1.25;;;;;;;;;;4864046;29;20061;-63
2022/07/26 21:11:34;;;;;;;3.78;1.38;;;;;;;;;;4871867;29;20057;-63
2022/07/26 21:14:01;;;;;;;3.80;1.50;;;;;;;;;;4875372;29;20089;-63
2022/07/26 21:16:28;;;;;;;3.28;1.60;;;;;;;;;;4871239;29;20056;-63
2022/07/26 21:18:54;;;;;;;5.55;1.58;;;;;;;;;;4874643;29;20056;-63
2022/07/26 21:21:21;;;;;;;3.60;1.23;;;;;;;;;;4874503;29;20085;-63
2022/07/26 21:23:48;;;;;;;5.45;1.60;;;;;;;;;;4871624;29;20097;-63
2022/07/26 21:26:15;;;;;;;6.60;1.40;;;;;;;;;;4874374;29;20061;-63
2022/07/26 21:28:43;;;;;;;3.15;1.23;;;;;;;;;;4869475;29;20155;-63
2022/07/26 21:31:10;;;;;;;3.28;1.52;;;;;;;;;;4874448;29;20057;-63
2022/07/26 21:33:36;;;;;;;3.65;1.50;;;;;;;;;;4870363;29;20065;-63
2022/07/26 21:36:03;;;;;;;2.85;1.13;;;;;;;;;;4874382;29;20070;-63
2022/07/26 21:38:30;;;;;;;6.32;1.73;;;;;;;;;;4870087;29;20093;-63
2022/07/26 21:40:57;;;;;;;3.90;1.40;;;;;;;;;;4874509;29;20088;-63
2022/07/26 21:43:24;;;;;;;4.93;1.45;;;;;;;;;;4870589;29;20073;-63
2022/07/26 21:45:52;;;;;;;2.75;1.45;;;;;;;;;;4874780;29;20049;-63
2022/07/26 21:48:18;;;;;;;6.55;1.20;;;;;;;;;;4871378;29;20064;-63
2022/07/26 21:50:45;;;;;;;4.40;1.48;;;;;;;;;;4874723;29;20061;-63
2022/07/26 21:53:12;;;;;;;2.92;1.25;;;;;;;;;;4870952;29;20049;-63
2022/07/26 21:55:38;;;;;;;4.18;1.13;;;;;;;;;;4874172;29;20108;-63
2022/07/26 21:58:09;;;;;;;3.17;1.35;;;;;;;;;;4871877;29;20061;-62
2022/07/26 22:00:37;;;;;;;2.38;1.20;;;;;;;;;;4874799;29;20049;-63
2022/07/26 22:03:06;;;;;;;3.40;1.30;;;;;;;;;;4872434;29;20057;-63
2022/07/26 22:05:36;;;;;;;5.50;1.42;;;;;;;;;;4870470;29;20061;-63
2022/07/26 22:08:04;;;;;;;3.15;1.30;;;;;;;;;;4887755;29;20113;-62
2022/07/26 22:10:32;;;;;;;3.00;1.25;;;;;;;;;;4873443;29;20054;-63
2022/07/26 22:12:58;;;;;;;3.25;1.40;;;;;;;;;;4880431;29;20057;-63
2022/07/26 22:15:25;;;;;;;3.15;1.40;;;;;;;;;;4876354;29;20053;-63
2022/07/26 22:17:53;;;;;;;4.70;1.50;;;;;;;;;;4875196;29;20057;-63
2022/07/26 22:20:22;;;;;;;3.85;1.40;;;;;;;;;;4872831;29;20243;-63
2022/07/26 22:22:48;;;;;;;3.83;1.48;;;;;;;;;;4875388;29;20114;-63
2022/07/26 22:25:15;;;;;;;3.30;1.33;;;;;;;;;;4872355;29;20082;-62
2022/07/26 22:27:41;;;;;;;3.03;1.13;;;;;;;;;;4874996;29;20061;-63
2022/07/26 22:30:10;;;;;;;11.38;1.25;;;;;;;;;;4870962;29;20057;-63
2022/07/26 22:32:36;;;;;;;3.92;1.20;;;;;;;;;;4874395;29;20076;-62
2022/07/26 22:35:03;;;;;;;3.92;1.40;;;;;;;;;;4874787;29;20049;-62
2022/07/26 22:37:31;;;;;;;3.88;1.42;;;;;;;;;;4893117;29;20088;-62
2022/07/26 22:39:57;;;;;;;2.45;1.20;;;;;;;;;;4886636;29;20048;-62
2022/07/26 22:42:24;;;;;;;4.07;1.58;;;;;;;;;;4874478;29;20064;-62
2022/07/26 22:44:50;;;;;;;3.55;1.48;;;;;;;;;;4874504;29;20068;-62
2022/07/26 22:47:17;;;;;;;2.47;1.00;;;;;;;;;;4872917;29;20151;-62
2022/07/26 22:49:44;;;;;;;4.22;1.33;;;;;;;;;;4873860;29;20049;-62
2022/07/26 22:52:10;;;;;;;3.70;1.10;;;;;;;;;;4886172;29;20125;-63
2022/07/26 22:54:38;;;;;;;3.28;1.30;;;;;;;;;;4892546;29;20056;-62
2022/07/26 22:57:05;;;;;;;3.65;1.20;;;;;;;;;;4874320;29;20068;-62
2022/07/26 22:59:31;;;;;;;4.20;1.40;;;;;;;;;;4873879;29;20061;-62
2022/07/26 23:01:58;;;;;;;2.08;1.13;;;;;;;;;;4870148;29;20067;-62
2022/07/26 23:04:24;;;;;;;3.53;0.93;;;;;;;;;;4874110;29;20137;-62
2022/07/26 23:06:51;;;;;;;1.98;1.08;;;;;;;;;;4879914;29;20056;-62
2022/07/26 23:09:17;;;;;;;3.40;1.40;;;;;;;;;;4892599;29;20061;-62
2022/07/26 23:11:45;;;;;;;3.20;1.20;;;;;;;;;;4881340;29;20049;-62
2022/07/26 23:14:12;;;;;;;2.25;0.90;;;;;;;;;;4873966;29;20052;-63
2022/07/26 23:16:38;;;;;;;2.92;1.30;;;;;;;;;;4873023;29;20104;-62
2022/07/26 23:19:05;;;;;;;2.33;1.20;;;;;;;;;;4892109;29;20077;-62
2022/07/26 23:21:31;;;;;;;2.58;1.13;;;;;;;;;;4873654;29;20057;-62
2022/07/26 23:23:58;;;;;;;2.55;1.20;;;;;;;;;;4874096;29;20056;-63
2022/07/26 23:26:25;;;;;;;2.47;1.10;;;;;;;;;;4873912;29;20056;-62
2022/07/26 23:28:53;;;;;;;3.20;1.05;;;;;;;;;;4887433;29;20052;-62
2022/07/26 23:31:19;;;;;;;4.55;1.20;;;;;;;;;;4892206;29;20135;-62
2022/07/26 23:33:46;;;;;;;2.63;1.13;;;;;;;;;;4878977;29;20069;-62
2022/07/26 23:36:12;;;;;;;2.08;0.93;;;;;;;;;;4873319;29;20053;-62
2022/07/26 23:38:39;;;;;;;2.53;1.00;;;;;;;;;;4869651;29;20061;-62
2022/07/26 23:41:05;;;;;;;3.35;1.08;;;;;;;;;;4873717;29;20117;-62
2022/07/26 23:43:32;;;;;;;3.38;0.93;;;;;;;;;;4870175;29;20081;-62
2022/07/26 23:46:00;;;;;;;3.28;1.10;;;;;;;;;;4873256;29;20069;-62
2022/07/26 23:48:27;;;;;;;3.30;1.10;;;;;;;;;;4870885;29;20057;-62
2022/07/26 23:50:53;;;;;;;1.17;0.80;;;;;;;;;;4873711;29;20064;-63
2022/07/26 23:53:20;;;;;;;2.70;1.05;;;;;;;;;;4875557;29;20068;-62
2022/07/26 23:55:46;;;;;;;1.70;0.90;;;;;;;;;;4883775;29;20064;-63
2022/07/26 23:58:14;;;;;;;1.85;0.82;;;;;;;;;;4873182;29;20063;-63
